Terminal Aerodrome Forecast
Issued by NWS

Home | Current Version | Previous Version | Text Only | Print | Product List | Glossary On
Versions: 1 2 3 4 5 6 7 8 9 10 11 12 13 14 15 16 17 18 19 20
000
FTUS43 KFGF 241731
TAFBJI
TAF
KBJI 241731Z 2418/2518 VRB06KT P6SM OVC009
      TEMPO 2418/2421 OVC015
     FM242100 29007KT P6SM OVC020
      TEMPO 2421/2424 -SHRA OVC007
     FM250000 33006KT P6SM VCSH OVC008=

USA.gov is the U.S. government's official web portal to all federal, state and local government web resources and services.